Time;durP1;ratioP1;P1;durP2;ratioP2;P2;SDS_P1;SDS_P2;PMS_P1;PMS_P2;Temp;Humidity;BMP_temperature;BMP_pressure;BME280_temperature;BME280_humidity;BME280_pressure;Samples;Min_cycle;Max_cycle;Signal;HPM_P1;HPM_P2
2022/02/16 00:01:11;;;;;;;13.60;5.00;;;;;;;1.31;39.06;99780.09;5057142;28;20475;-65
2022/02/16 00:03:37;;;;;;;8.67;4.33;;;;;;;1.39;38.72;99789.16;5075496;28;20067;-65
2022/02/16 00:06:03;;;;;;;7.80;3.97;;;;;;;1.58;38.54;99794.06;5075595;28;20407;-65
2022/02/16 00:08:29;;;;;;;11.13;4.07;;;;;;;1.39;38.68;99799.63;5075121;28;20500;-65
2022/02/16 00:10:55;;;;;;;10.90;3.93;;;;;;;1.37;38.56;99787.56;5058476;28;20047;-65
2022/02/16 00:13:20;;;;;;;8.97;4.53;;;;;;;1.23;39.08;99779.75;5058512;28;20141;-65
2022/02/16 00:15:48;;;;;;;8.27;3.77;;;;;;;0.96;38.92;99739.63;5075370;28;20474;-65
2022/02/16 00:18:14;;;;;;;9.40;4.57;;;;;;;1.43;38.66;99759.22;5058716;28;20040;-64
2022/02/16 00:20:41;;;;;;;9.90;3.90;;;;;;;1.52;38.27;99748.16;5075030;28;20130;-65
2022/02/16 00:23:06;;;;;;;8.30;3.73;;;;;;;1.68;38.02;99790.75;5058122;28;20043;-69
2022/02/16 00:25:32;;;;;;;10.27;4.40;;;;;;;1.37;38.27;99774.47;5058771;28;20048;-64
2022/02/16 00:27:58;;;;;;;9.07;4.40;;;;;;;1.24;38.82;99791.91;5041984;28;20096;-64
2022/02/16 00:30:24;;;;;;;10.80;3.90;;;;;;;1.25;39.12;99788.34;5074645;28;20043;-65
2022/02/16 00:32:50;;;;;;;9.17;3.93;;;;;;;1.28;38.94;99772.44;5074890;28;20083;-64
2022/02/16 00:35:16;;;;;;;8.30;3.73;;;;;;;1.23;39.16;99774.53;5074874;28;20109;-64
2022/02/16 00:37:42;;;;;;;7.37;4.23;;;;;;;1.21;39.28;99779.00;5074481;28;20569;-64
2022/02/16 00:40:08;;;;;;;9.03;4.00;;;;;;;1.27;39.27;99789.09;5091542;28;20070;-67
2022/02/16 00:42:34;;;;;;;9.63;4.00;;;;;;;1.19;39.19;99779.09;5058112;28;20411;-64
2022/02/16 00:45:00;;;;;;;9.63;4.00;;;;;;;1.12;39.06;99762.09;5074802;28;20100;-65
2022/02/16 00:47:26;;;;;;;11.23;4.50;;;;;;;1.14;39.01;99768.09;5058008;28;20434;-64
2022/02/16 00:49:52;;;;;;;7.40;3.77;;;;;;;0.98;39.29;99740.38;5057770;28;20061;-64
2022/02/16 00:52:20;;;;;;;8.70;4.20;;;;;;;1.11;39.27;99770.91;5060572;28;20044;-64
2022/02/16 00:54:47;;;;;;;7.93;4.10;;;;;;;1.05;39.60;99765.19;5061919;28;20071;-64
2022/02/16 00:57:16;;;;;;;9.63;4.20;;;;;;;1.00;39.39;99743.75;5061750;28;20040;-64
2022/02/16 00:59:42;;;;;;;9.00;4.07;;;;;;;0.99;39.49;99745.50;5078023;28;20039;-64
2022/02/16 01:02:07;;;;;;;7.97;3.80;;;;;;;0.97;39.55;99751.78;5078625;28;20039;-64
2022/02/16 01:04:34;;;;;;;10.37;4.67;;;;;;;0.96;39.43;99750.94;5095189;28;20063;-64
2022/02/16 01:07:04;;;;;;;9.80;4.43;;;;;;;0.73;39.78;99716.69;5061719;28;20035;-64
2022/02/16 01:09:32;;;;;;;8.37;4.23;;;;;;;0.71;39.91;99715.97;5062429;28;20043;-65
2022/02/16 01:11:58;;;;;;;7.57;4.30;;;;;;;0.78;40.14;99739.00;5078093;28;20065;-64
2022/02/16 01:14:30;;;;;;;10.33;4.67;;;;;;;0.78;39.83;99731.16;5061968;28;20521;-64
2022/02/16 01:17:17;;;;;;;7.30;3.70;;;;;;;0.63;40.04;99726.03;5050743;28;20142;-65
2022/02/16 01:19:52;;;;;;;11.13;4.47;;;;;;;0.48;40.21;99685.19;5079508;28;20081;-65
2022/02/16 01:22:18;;;;;;;9.33;4.30;;;;;;;0.76;40.13;99740.03;5061559;28;20075;-64
2022/02/16 01:24:44;;;;;;;9.93;4.23;;;;;;;0.58;39.90;99715.03;5077809;28;20483;-65
2022/02/16 01:27:11;;;;;;;10.10;4.23;;;;;;;0.54;40.47;99711.75;5043448;28;20039;-65
2022/02/16 01:29:37;;;;;;;10.13;4.60;;;;;;;0.37;40.32;99679.75;5043568;28;20038;-65
2022/02/16 01:32:19;;;;;;;9.03;4.27;;;;;;;0.54;40.21;99713.53;5079166;28;20047;-66
2022/02/16 01:34:45;;;;;;;10.33;4.60;;;;;;;0.39;40.58;99715.31;5076395;28;20036;-65
2022/02/16 01:37:12;;;;;;;9.13;4.17;;;;;;;0.37;40.54;99714.53;5059665;28;20567;-65
2022/02/16 01:39:39;;;;;;;9.83;4.40;;;;;;;0.32;40.42;99702.72;5093639;28;20035;-64
2022/02/16 01:42:05;;;;;;;10.47;4.80;;;;;;;0.34;40.37;99733.00;5061407;28;20047;-64
2022/02/16 01:44:32;;;;;;;12.00;4.87;;;;;;;0.27;41.11;99713.44;5094533;28;20525;-65
2022/02/16 01:47:04;;;;;;;9.13;4.10;;;;;;;0.47;40.53;99702.63;5045044;28;20040;-66
2022/02/16 01:49:33;;;;;;;9.27;4.03;;;;;;;0.31;41.13;99719.31;5078304;28;20047;-65
2022/02/16 01:51:59;;;;;;;9.77;4.13;;;;;;;0.23;40.78;99708.50;5077629;28;20073;-65
2022/02/16 01:54:30;;;;;;;13.95;4.15;;;;;;;0.20;40.98;99703.44;5045304;28;20043;-65
2022/02/16 01:56:56;;;;;;;7.50;4.27;;;;;;;0.30;41.10;99713.25;5060796;28;20051;-65
2022/02/16 01:59:28;;;;;;;6.73;4.10;;;;;;;0.02;41.10;99715.00;5061470;28;20065;-65
2022/02/16 02:02:12;;;;;;;10.17;4.83;;;;;;;0.08;41.10;99691.94;5079894;28;20042;-73
2022/02/16 02:04:40;;;;;;;10.70;5.43;;;;;;;0.03;40.94;99687.00;5061087;28;20051;-65
2022/02/16 02:07:10;;;;;;;9.83;3.67;;;;;;;-0.06;41.06;99694.53;5078334;28;20085;-65
2022/02/16 02:09:36;;;;;;;14.80;5.43;;;;;;;0.17;40.94;99706.25;5077538;28;20042;-65
2022/02/16 02:12:03;;;;;;;10.23;4.60;;;;;;;0.12;41.10;99692.63;5060691;28;20555;-65
2022/02/16 02:14:34;;;;;;;10.23;4.30;;;;;;;0.03;41.11;99687.00;5094022;28;20503;-64
2022/02/16 02:17:04;;;;;;;7.70;3.70;;;;;;;0.03;41.16;99690.56;5060995;28;20218;-65
2022/02/16 02:19:29;;;;;;;10.57;4.83;;;;;;;-0.03;41.16;99699.56;5061058;28;20553;-65
2022/02/16 02:22:00;;;;;;;9.87;4.27;;;;;;;0.01;41.56;99677.59;5094285;28;20059;-64
2022/02/16 02:24:27;;;;;;;8.83;4.07;;;;;;;-0.01;41.68;99690.75;5093430;28;20067;-65
2022/02/16 02:26:53;;;;;;;8.87;4.27;;;;;;;-0.08;41.63;99688.59;5076642;28;20052;-65
2022/02/16 02:29:19;;;;;;;9.20;4.03;;;;;;;0.06;41.58;99690.38;5076567;28;20156;-65
2022/02/16 02:31:53;;;;;;;9.03;4.57;;;;;;;-0.08;41.64;99681.56;5062042;28;20403;-64
2022/02/16 02:34:19;;;;;;;11.67;5.00;;;;;;;-0.02;41.44;99678.59;5076297;28;20043;-65
2022/02/16 02:36:46;;;;;;;11.70;4.80;;;;;;;0.06;41.41;99672.09;5076765;28;20047;-65
2022/02/16 02:39:12;;;;;;;11.73;4.53;;;;;;;0.08;41.46;99684.13;5043553;28;20051;-66
2022/02/16 02:41:38;;;;;;;10.47;4.27;;;;;;;0.01;41.66;99674.97;5059760;28;20042;-66
2022/02/16 02:44:04;;;;;;;13.00;5.13;;;;;;;-0.05;41.84;99676.16;5043088;28;20083;-64
2022/02/16 02:46:30;;;;;;;10.47;5.00;;;;;;;-0.04;41.75;99667.44;5076390;28;20047;-64
2022/02/16 02:48:59;;;;;;;9.67;5.00;;;;;;;-0.12;41.71;99674.88;5076819;28;20056;-64
2022/02/16 02:51:25;;;;;;;10.53;5.40;;;;;;;-0.07;41.80;99662.38;5042907;28;20047;-64
2022/02/16 02:53:52;;;;;;;10.73;5.27;;;;;;;-0.09;41.51;99673.84;5076343;28;20054;-65
2022/02/16 02:56:20;;;;;;;11.73;5.00;;;;;;;-0.21;41.73;99662.38;5043361;28;20553;-64
2022/02/16 02:58:47;;;;;;;12.83;5.10;;;;;;;-0.15;41.90;99685.50;5076137;28;20429;-66
2022/02/16 03:01:13;;;;;;;12.93;5.37;;;;;;;-0.38;41.91;99640.78;5060214;28;20130;-64
2022/02/16 03:03:45;;;;;;;14.47;5.30;;;;;;;-0.32;42.29;99669.97;5059772;28;20050;-69
2022/02/16 03:06:12;;;;;;;14.70;5.43;;;;;;;-0.16;42.34;99677.75;5043064;28;20503;-67
2022/02/16 03:08:38;;;;;;;12.40;5.93;;;;;;;-0.24;42.54;99659.09;5042495;28;20130;-67
2022/02/16 03:11:04;;;;;;;13.83;5.77;;;;;;;-0.29;42.31;99651.53;5059309;28;20059;-67
2022/02/16 03:13:30;;;;;;;12.07;5.40;;;;;;;-0.28;42.72;99668.03;5092680;28;20051;-69
2022/02/16 03:16:03;;;;;;;12.97;5.13;;;;;;;-0.22;42.55;99654.63;5060055;28;20044;-67
2022/02/16 03:18:30;;;;;;;15.70;5.37;;;;;;;-0.31;42.40;99645.56;5059420;28;20039;-67
2022/02/16 03:20:56;;;;;;;12.83;4.80;;;;;;;-0.25;42.78;99650.41;5059564;28;20049;-68
2022/02/16 03:23:24;;;;;;;14.73;5.97;;;;;;;-0.22;42.55;99660.69;5059830;28;20042;-67
2022/02/16 03:25:50;;;;;;;11.70;5.73;;;;;;;-0.17;42.68;99665.63;5092925;28;20427;-67
2022/02/16 03:28:19;;;;;;;14.03;5.07;;;;;;;-0.28;42.75;99634.94;5059739;28;20048;-67
2022/02/16 03:30:56;;;;;;;13.97;5.00;;;;;;;-0.16;42.68;99641.22;5077540;28;20047;-73
2022/02/16 03:33:22;;;;;;;12.77;5.17;;;;;;;-0.20;42.76;99637.94;5058967;28;20039;-68
2022/02/16 03:35:49;;;;;;;14.40;5.47;;;;;;;-0.32;42.97;99645.63;5075613;28;20043;-65
2022/02/16 03:38:15;;;;;;;11.67;5.37;;;;;;;-0.14;42.70;99650.63;5068395;28;20150;-71
2022/02/16 03:40:41;;;;;;;12.20;5.50;;;;;;;-0.10;42.90;99633.00;5054097;28;20532;-72
2022/02/16 03:43:07;;;;;;;16.13;6.83;;;;;;;-0.08;42.66;99631.16;5053355;28;20574;-71
2022/02/16 03:45:33;;;;;;;14.60;5.67;;;;;;;-0.06;43.11;99648.41;5069768;28;20044;-71
2022/02/16 03:48:00;;;;;;;15.23;5.90;;;;;;;-0.10;42.77;99646.91;5037175;28;20048;-71
2022/02/16 03:50:28;;;;;;;10.77;5.13;;;;;;;0.02;42.72;99647.94;5037756;28;20039;-68
2022/02/16 03:52:54;;;;;;;14.07;5.67;;;;;;;-0.29;42.84;99620.22;5053654;28;20036;-67
2022/02/16 03:55:21;;;;;;;14.17;5.77;;;;;;;-0.03;43.00;99668.25;5037154;28;20040;-68
2022/02/16 03:57:47;;;;;;;12.10;5.97;;;;;;;0.07;42.52;99651.13;5020777;28;20047;-73
2022/02/16 04:00:16;;;;;;;12.87;5.70;;;;;;;0.04;43.04;99653.91;5053583;28;20048;-69
2022/02/16 04:02:48;;;;;;;14.03;5.10;;;;;;;0.07;42.63;99648.50;5070583;28;20067;-69
2022/02/16 04:05:16;;;;;;;12.60;5.77;;;;;;;0.09;42.74;99645.81;5021556;28;20461;-69
2022/02/16 04:07:42;;;;;;;13.40;6.07;;;;;;;0.07;42.78;99632.84;5037336;28;20036;-68
2022/02/16 04:10:10;;;;;;;14.93;6.23;;;;;;;0.20;42.73;99643.38;5053558;28;20082;-70
2022/02/16 04:12:38;;;;;;;15.50;6.23;;;;;;;0.01;43.04;99648.88;5036016;28;20072;-69
2022/02/16 04:15:04;;;;;;;13.60;6.27;;;;;;;0.10;42.67;99631.81;5070099;28;20082;-69
2022/02/16 04:17:33;;;;;;;14.37;6.17;;;;;;;-0.02;42.95;99636.81;5036902;28;20415;-71
2022/02/16 04:20:03;;;;;;;14.90;5.67;;;;;;;0.05;42.97;99620.81;5037526;28;20047;-70
2022/02/16 04:22:30;;;;;;;15.23;6.13;;;;;;;-0.09;43.28;99619.88;5053946;28;20115;-68
2022/02/16 04:24:55;;;;;;;13.67;6.27;;;;;;;-0.06;43.26;99611.00;5070522;28;20500;-69
2022/02/16 04:27:22;;;;;;;14.30;5.87;;;;;;;0.00;43.16;99628.94;5023293;28;20142;-69
2022/02/16 04:29:48;;;;;;;14.50;6.40;;;;;;;-0.07;43.12;99628.47;5040946;28;20128;-71
2022/02/16 04:32:15;;;;;;;15.90;6.50;;;;;;;-0.03;43.15;99629.94;5024026;28;20496;-70
2022/02/16 04:34:41;;;;;;;14.67;6.80;;;;;;;-0.16;43.21;99607.28;5040225;28;20599;-68
2022/02/16 04:37:07;;;;;;;13.10;6.63;;;;;;;-0.25;42.88;99579.94;5057505;28;20086;-68
2022/02/16 04:39:35;;;;;;;13.53;6.53;;;;;;;-0.01;43.34;99638.53;5040860;28;20048;-72
2022/02/16 04:42:03;;;;;;;13.50;6.57;;;;;;;-0.13;43.43;99628.81;5040854;28;20070;-72
2022/02/16 04:44:29;;;;;;;14.17;7.07;;;;;;;-0.20;43.17;99637.13;5040854;28;20109;-68
2022/02/16 04:47:10;;;;;;;16.90;7.10;;;;;;;-0.25;43.56;99639.97;5028413;28;20051;-73
2022/02/16 04:49:36;;;;;;;16.00;6.97;;;;;;;-0.32;43.86;99632.59;5057247;28;20105;-72
2022/02/16 04:52:03;;;;;;;15.40;7.33;;;;;;;-0.27;43.98;99620.97;5040623;28;20435;-71
2022/02/16 04:54:30;;;;;;;17.90;7.33;;;;;;;-0.36;43.88;99621.53;5072711;28;20108;-69
2022/02/16 04:56:56;;;;;;;22.63;8.03;;;;;;;-0.55;44.04;99628.72;5091553;28;20036;-69
2022/02/16 04:59:25;;;;;;;17.90;7.33;;;;;;;-0.49;44.19;99624.91;5040940;28;20036;-71
2022/02/16 05:01:51;;;;;;;16.00;6.77;;;;;;;-0.47;44.33;99620.47;5073875;28;20392;-72
2022/02/16 05:04:17;;;;;;;19.33;7.47;;;;;;;-0.36;44.42;99612.84;5040488;28;20048;-70
2022/02/16 05:06:45;;;;;;;18.13;7.37;;;;;;;-0.40;44.31;99635.66;5040441;28;20051;-69
2022/02/16 05:09:13;;;;;;;15.82;6.57;;;;;;;-0.33;44.33;99634.38;5072110;28;20055;-71
2022/02/16 05:11:39;;;;;;;16.37;6.60;;;;;;;-0.33;44.34;99616.13;5020619;28;20044;-71
2022/02/16 05:14:08;;;;;;;13.63;6.57;;;;;;;-0.34;44.01;99629.25;5054401;28;20040;-73
2022/02/16 05:16:36;;;;;;;17.77;7.07;;;;;;;-0.26;44.10;99624.41;5038418;28;20039;-72
2022/02/16 05:19:03;;;;;;;14.60;7.07;;;;;;;-0.20;44.25;99644.94;5071941;28;20052;-73
2022/02/16 05:21:37;;;;;;;15.90;6.90;;;;;;;-0.26;44.04;99629.63;5040778;28;20247;-72
2022/02/16 05:24:10;;;;;;;16.27;7.03;;;;;;;-0.28;44.30;99632.31;5041288;28;20032;-72
2022/02/16 05:26:38;;;;;;;16.75;6.82;;;;;;;-0.19;44.15;99628.34;5041317;28;20571;-72
2022/02/16 05:29:06;;;;;;;13.57;6.40;;;;;;;-0.12;44.08;99634.88;5057554;28;20048;-72
2022/02/16 05:31:34;;;;;;;14.27;6.77;;;;;;;-0.11;44.00;99647.81;5058273;28;20040;-72
2022/02/16 05:34:00;;;;;;;12.70;6.40;;;;;;;-0.10;44.26;99641.69;5023206;28;20535;-71
2022/02/16 05:36:27;;;;;;;19.43;7.33;;;;;;;-0.06;44.04;99656.22;5056882;28;20048;-71
2022/02/16 05:38:52;;;;;;;20.67;7.67;;;;;;;-0.09;44.21;99643.34;5039954;28;20105;-72
2022/02/16 05:41:18;;;;;;;13.80;6.30;;;;;;;-0.15;44.01;99651.56;5039934;28;20500;-71
2022/02/16 05:43:46;;;;;;;13.30;7.03;;;;;;;-0.01;43.89;99642.91;5040560;28;20503;-73
2022/02/16 05:46:15;;;;;;;18.07;7.60;;;;;;;0.10;43.91;99658.75;5040019;28;20044;-73
2022/02/16 05:48:42;;;;;;;21.90;7.47;;;;;;;0.15;43.66;99635.84;5039783;28;20040;-72
2022/02/16 05:51:08;;;;;;;16.63;7.70;;;;;;;0.16;43.62;99637.50;5040019;28;20060;-71
2022/02/16 05:53:34;;;;;;;21.83;7.50;;;;;;;0.14;44.01;99648.97;5055963;28;20086;-72
2022/02/16 05:56:00;;;;;;;18.43;8.10;;;;;;;-0.05;43.95;99623.97;5073313;28;20073;-72
2022/02/16 05:58:26;;;;;;;20.10;7.67;;;;;;;0.10;43.98;99655.31;5055902;28;20123;-71
2022/02/16 06:00:52;;;;;;;15.10;7.40;;;;;;;0.14;43.95;99648.97;5056298;28;20565;-72
2022/02/16 06:03:31;;;;;;;14.83;7.13;;;;;;;0.26;43.70;99659.53;5057934;28;20044;-72
2022/02/16 06:05:57;;;;;;;20.83;8.17;;;;;;;0.35;43.77;99661.56;5039625;28;20048;-70
2022/02/16 06:08:24;;;;;;;21.27;8.10;;;;;;;0.37;43.79;99653.66;5056185;28;20075;-71
2022/02/16 06:10:49;;;;;;;20.67;7.97;;;;;;;0.52;43.30;99660.53;5056472;28;20125;-71
2022/02/16 06:13:19;;;;;;;16.40;7.77;;;;;;;0.57;43.38;99654.06;5039914;28;20097;-71
2022/02/16 06:15:45;;;;;;;19.37;9.03;;;;;;;0.54;43.35;99659.50;5039189;28;20036;-71
2022/02/16 06:18:11;;;;;;;22.60;9.07;;;;;;;0.53;43.69;99649.13;5056525;28;20046;-71
2022/02/16 06:20:38;;;;;;;16.00;7.80;;;;;;;0.52;43.93;99666.59;5055975;28;20048;-71
2022/02/16 06:23:04;;;;;;;24.30;8.87;;;;;;;0.64;43.41;99641.47;5056268;28;20492;-71
2022/02/16 06:25:30;;;;;;;21.67;8.70;;;;;;;0.70;43.26;99647.16;5039155;28;20035;-73
2022/02/16 06:27:57;;;;;;;17.97;8.00;;;;;;;0.78;43.29;99652.75;5039731;28;20070;-72
2022/02/16 06:30:23;;;;;;;14.60;6.93;;;;;;;0.75;43.25;99641.66;5038675;28;20667;-70
2022/02/16 06:32:54;;;;;;;;;;;;;;;1.25;42.64;99653.16;5040248;28;20433;-73
2022/02/16 06:35:21;;;;;;;15.80;7.57;;;;;;;0.95;42.86;99649.06;5038787;28;19958;-71
2022/02/16 06:37:47;;;;;;;17.27;7.90;;;;;;;0.97;42.97;99658.47;5056331;28;20048;-71
2022/02/16 06:40:14;;;;;;;21.33;8.13;;;;;;;1.13;42.91;99646.13;5022463;28;20043;-72
2022/02/16 06:42:44;;;;;;;18.20;8.77;;;;;;;1.01;43.12;99632.97;5039827;28;20182;-73
2022/02/16 06:45:12;;;;;;;20.40;8.27;;;;;;;1.01;42.90;99651.28;5075484;28;20217;-72
2022/02/16 06:47:43;;;;;;;20.27;8.17;;;;;;;1.05;43.12;99632.69;5076417;28;20047;-72
2022/02/16 06:50:11;;;;;;;21.93;9.83;;;;;;;1.12;43.15;99625.28;5057865;28;20077;-73
2022/02/16 06:52:40;;;;;;;23.20;9.43;;;;;;;1.24;42.74;99630.56;5092273;28;20459;-73
2022/02/16 06:55:07;;;;;;;20.93;9.20;;;;;;;1.38;42.93;99640.13;5058671;28;20483;-75
2022/02/16 06:57:33;;;;;;;28.23;10.37;;;;;;;1.41;42.64;99629.44;5052190;28;20101;-72
2022/02/16 07:00:04;;;;;;;22.00;9.10;;;;;;;1.66;42.27;99619.84;5074920;28;20055;-73
2022/02/16 07:02:30;;;;;;;23.93;9.47;;;;;;;1.80;42.21;99618.94;5075276;28;20043;-75
2022/02/16 07:04:58;;;;;;;23.10;9.57;;;;;;;1.85;41.54;99606.38;5076074;28;20134;-74
2022/02/16 07:07:26;;;;;;;24.00;9.83;;;;;;;1.88;41.87;99610.56;5109889;28;20073;-73
2022/02/16 07:09:52;;;;;;;21.13;9.17;;;;;;;2.18;41.44;99621.56;5058577;28;20049;-72
2022/02/16 07:12:18;;;;;;;25.40;10.47;;;;;;;2.32;41.21;99613.59;5073787;28;20043;-72
2022/02/16 07:14:47;;;;;;;19.47;10.03;;;;;;;2.37;40.57;99586.09;5057733;28;20460;-72
2022/02/16 07:17:13;;;;;;;22.63;9.97;;;;;;;2.88;39.92;99621.72;5074459;28;20134;-72
2022/02/16 07:19:40;;;;;;;21.90;9.93;;;;;;;3.46;38.64;99629.63;5091422;28;20645;-72
2022/02/16 07:22:27;;;;;;;16.47;8.87;;;;;;;5.26;35.96;99623.34;5093882;28;20040;-72
2022/02/16 07:24:53;;;;;;;25.63;9.47;;;;;;;7.40;32.29;99618.69;5074780;28;20055;-73
2022/02/16 07:27:19;;;;;;;19.05;8.80;;;;;;;8.62;29.68;99605.41;5074006;28;20089;-72
2022/02/16 07:29:45;;;;;;;21.20;9.38;;;;;;;10.22;26.86;99600.81;5057488;28;20518;-71
2022/02/16 07:32:11;;;;;;;19.58;9.20;;;;;;;11.29;25.38;99605.41;5074007;28;20096;-72
2022/02/16 07:34:37;;;;;;;24.63;9.20;;;;;;;12.56;23.81;99603.69;5074004;28;20147;-71
2022/02/16 07:37:05;;;;;;;19.20;9.52;;;;;;;13.46;22.71;99608.44;5073385;28;20048;-72
2022/02/16 07:39:32;;;;;;;22.52;9.45;;;;;;;14.43;21.49;99595.13;5074468;28;20040;-73
2022/02/16 07:42:00;;;;;;;22.00;10.30;;;;;;;14.74;20.57;99585.06;5041548;28;20130;-73
2022/02/16 07:44:55;;;;;;;21.52;9.90;;;;;;;15.27;20.00;99590.88;5001705;28;20570;-72
2022/02/16 07:47:25;;;;;;;23.92;10.50;;;;;;;15.58;18.94;99601.31;5091020;28;20093;-72
2022/02/16 07:49:54;;;;;;;16.65;9.45;;;;;;;16.32;19.56;99587.34;5073436;28;20392;-72
2022/02/16 07:52:23;;;;;;;29.35;10.48;;;;;;;16.59;18.29;99564.25;5074536;28;20534;-72
2022/02/16 07:55:05;;;;;;;21.67;10.13;;;;;;;16.52;18.29;99577.59;5073744;28;20078;-72
2022/02/16 07:57:38;;;;;;;19.33;10.05;;;;;;;16.29;18.19;99578.84;5074500;28;20054;-69
2022/02/16 08:00:06;;;;;;;28.83;11.43;;;;;;;15.85;18.61;99565.72;5040595;28;20043;-73
2022/02/16 08:02:41;;;;;;;18.25;10.43;;;;;;;15.76;18.99;99566.06;5092028;28;20043;-71
2022/02/16 08:05:12;;;;;;;21.42;10.88;;;;;;;15.83;18.83;99562.44;5090796;28;20047;-72
2022/02/16 08:07:38;;;;;;;19.80;10.65;;;;;;;16.12;18.33;99566.78;5066177;28;20084;-71
2022/02/16 08:10:05;;;;;;;18.83;10.57;;;;;;;16.17;18.33;99553.63;5075212;28;20070;-72
2022/02/16 08:12:31;;;;;;;28.77;11.80;;;;;;;16.26;18.24;99555.97;5036833;28;20060;-71
2022/02/16 08:14:57;;;;;;;21.95;10.48;;;;;;;16.44;18.10;99558.16;5038710;28;20050;-71
2022/02/16 08:17:24;;;;;;;23.65;10.95;;;;;;;16.16;18.02;99506.44;5037593;28;20406;-70
2022/02/16 08:19:51;;;;;;;25.67;11.23;;;;;;;16.35;18.12;99545.91;5075844;28;20142;-71
2022/02/16 08:22:17;;;;;;;19.17;10.95;;;;;;;16.24;18.23;99559.84;5044973;28;20047;-71
2022/02/16 08:24:43;;;;;;;24.73;11.13;;;;;;;16.44;17.84;99548.25;5046622;28;20060;-72
2022/02/16 08:27:18;;;;;;;24.27;11.43;;;;;;;16.58;17.68;99515.13;5065310;28;20136;-70
2022/02/16 08:29:46;;;;;;;21.13;11.05;;;;;;;16.75;17.61;99543.28;5072597;28;20040;-69
2022/02/16 08:32:25;;;;;;;24.35;11.30;;;;;;;16.82;17.54;99554.03;5048675;28;20039;-69
2022/02/16 08:35:05;;;;;;;19.60;10.43;;;;;;;16.85;17.37;99548.28;5058240;28;20043;-68
2022/02/16 08:37:32;;;;;;;18.63;10.48;;;;;;;17.01;17.37;99547.06;5077772;28;20062;-73
2022/02/16 08:39:58;;;;;;;20.52;10.20;;;;;;;17.15;17.44;99527.31;5077823;28;20032;-70
2022/02/16 08:42:24;;;;;;;24.08;10.77;;;;;;;16.88;17.38;99539.81;5063075;28;20513;-73
2022/02/16 08:44:50;;;;;;;23.55;10.82;;;;;;;16.84;17.49;99539.38;5060875;28;20040;-72
2022/02/16 08:47:16;;;;;;;19.60;10.95;;;;;;;17.09;17.42;99539.69;5046850;28;20127;-71
2022/02/16 08:49:44;;;;;;;22.73;10.45;;;;;;;16.97;17.52;99543.16;5051949;28;20046;-72
2022/02/16 08:52:13;;;;;;;21.95;11.13;;;;;;;17.26;17.39;99534.75;5062739;28;20050;-72
2022/02/16 08:54:39;;;;;;;21.52;10.90;;;;;;;16.35;17.65;99460.97;5061951;28;20820;-72
2022/02/16 08:57:06;;;;;;;24.58;11.68;;;;;;;16.72;17.97;99529.44;5035705;28;20061;-73
2022/02/16 08:59:32;;;;;;;21.40;12.20;;;;;;;16.28;18.23;99519.03;5061743;28;20063;-74
2022/02/16 09:01:57;;;;;;;23.65;11.98;;;;;;;15.96;18.53;99541.09;5061977;28;20125;-74
2022/02/16 09:04:23;;;;;;;21.50;11.38;;;;;;;16.02;19.04;99524.25;5095261;28;20055;-74
2022/02/16 09:09:37;;;;;;;21.65;11.15;;;;;;;16.21;18.59;99512.00;5079235;28;20628;-73
2022/02/16 09:12:06;;;;;;;26.60;12.02;;;;;;;15.83;19.16;99521.41;5045701;28;20034;-73
2022/02/16 09:14:33;;;;;;;22.75;11.43;;;;;;;14.93;19.97;99514.94;5064997;28;20513;-73
2022/02/16 09:17:00;;;;;;;24.40;12.30;;;;;;;14.80;20.30;99533.53;5060454;28;20524;-73
2022/02/16 09:19:25;;;;;;;21.48;11.23;;;;;;;14.97;20.31;99530.47;5084535;28;20045;-73
2022/02/16 09:21:52;;;;;;;25.85;11.70;;;;;;;14.99;20.27;99515.03;5033282;28;20032;-73
2022/02/16 09:24:18;;;;;;;22.63;11.93;;;;;;;15.76;19.83;99524.03;5081436;28;20507;-74
2022/02/16 09:26:49;;;;;;;25.00;11.95;;;;;;;15.93;19.49;99514.69;5065224;28;20109;-74
2022/02/16 09:29:20;;;;;;;26.60;11.80;;;;;;;16.44;19.12;99525.97;5083241;28;20088;-74
2022/02/16 09:31:45;;;;;;;26.93;12.53;;;;;;;16.59;19.03;99494.53;5061347;28;20101;-72
2022/02/16 09:34:11;;;;;;;24.98;11.48;;;;;;;16.58;19.01;99498.22;5064573;28;20765;-73
2022/02/16 09:36:37;;;;;;;21.80;12.02;;;;;;;16.97;18.73;99494.84;5066169;28;20047;-73
2022/02/16 09:39:04;;;;;;;24.92;12.15;;;;;;;16.95;18.80;99494.22;5099672;28;20097;-72
2022/02/16 09:41:30;;;;;;;23.23;12.05;;;;;;;17.23;18.64;99487.69;5053649;28;20044;-73
2022/02/16 09:44:00;;;;;;;23.00;12.45;;;;;;;17.04;18.78;99488.47;5057795;28;20118;-74
2022/02/16 09:46:27;;;;;;;25.05;12.70;;;;;;;16.65;19.37;99485.69;5054796;28;20036;-74
2022/02/16 09:48:55;;;;;;;24.42;13.48;;;;;;;16.86;19.14;99485.53;5063994;28;20146;-75
2022/02/16 09:51:22;;;;;;;24.23;12.25;;;;;;;15.84;20.28;99464.16;5083330;28;20106;-74
2022/02/16 09:53:47;;;;;;;23.40;12.88;;;;;;;15.17;21.13;99469.13;5082471;28;20036;-75
2022/02/16 09:56:13;;;;;;;28.75;13.43;;;;;;;14.94;21.46;99484.53;5047255;28;20100;-74
2022/02/16 09:58:39;;;;;;;22.95;12.13;;;;;;;15.75;20.65;99457.28;5049121;28;20967;-75
2022/02/16 10:01:08;;;;;;;23.70;12.50;;;;;;;16.45;20.12;99474.84;5081347;28;20036;-74
2022/02/16 10:03:34;;;;;;;26.48;13.27;;;;;;;16.57;19.76;99472.44;5080520;28;20518;-75
2022/02/16 10:06:02;;;;;;;21.63;12.32;;;;;;;16.51;19.61;99482.09;5077668;28;20058;-74
2022/02/16 10:08:43;;;;;;;23.58;12.90;;;;;;;17.25;18.95;99447.22;5031512;28;20108;-75
2022/02/16 10:11:10;;;;;;;22.50;13.45;;;;;;;17.43;18.96;99474.28;5049129;28;20047;-73
2022/02/16 10:13:36;;;;;;;21.80;13.20;;;;;;;16.72;19.33;99452.50;5079346;28;20043;-75
2022/02/16 10:16:02;;;;;;;27.58;13.07;;;;;;;16.45;19.60;99468.69;5107299;28;20039;-73
2022/02/16 10:18:28;;;;;;;25.00;13.07;;;;;;;16.06;19.98;99457.72;5057714;28;20050;-75
2022/02/16 10:21:10;;;;;;;21.67;12.40;;;;;;;15.23;21.25;99455.00;5055568;28;20126;-75
2022/02/16 10:23:45;;;;;;;24.38;12.77;;;;;;;14.36;22.21;99426.69;5072403;28;20188;-76
2022/02/16 10:26:12;;;;;;;26.48;13.38;;;;;;;14.14;22.59;99450.81;5071469;28;20178;-74
2022/02/16 10:28:43;;;;;;;22.88;12.70;;;;;;;13.45;23.27;99404.03;5037748;28;20448;-74
2022/02/16 10:31:10;;;;;;;29.02;13.50;;;;;;;13.22;23.69;99440.59;5071967;28;20044;-73
2022/02/16 10:33:46;;;;;;;25.58;13.82;;;;;;;13.63;23.90;99438.38;5071357;28;20047;-74
2022/02/16 10:36:22;;;;;;;27.10;14.13;;;;;;;13.54;23.63;99425.13;5053605;28;20388;-73
2022/02/16 10:38:56;;;;;;;25.85;12.73;;;;;;;13.31;24.04;99404.84;5056253;28;20048;-77
2022/02/16 10:41:30;;;;;;;21.98;12.38;;;;;;;13.42;24.23;99437.22;5055574;28;20052;-72
2022/02/16 10:43:57;;;;;;;22.92;12.55;;;;;;;12.89;24.63;99439.97;5071842;28;20086;-73
2022/02/16 10:46:26;;;;;;;23.50;12.40;;;;;;;12.47;25.43;99433.44;5072286;28;20139;-73
2022/02/16 10:49:14;;;;;;;25.38;13.20;;;;;;;11.91;26.03;99423.84;5055104;28;20477;-74
2022/02/16 10:51:42;;;;;;;25.60;12.35;;;;;;;12.23;25.59;99399.75;5038161;28;20350;-75
2022/02/16 10:54:13;;;;;;;27.98;12.95;;;;;;;12.06;26.02;99418.63;5071402;28;20802;-75
2022/02/16 10:56:41;;;;;;;24.17;12.65;;;;;;;11.94;26.30;99412.88;5071376;28;20446;-73
2022/02/16 10:59:07;;;;;;;27.65;13.25;;;;;;;12.30;25.94;99407.88;5055802;28;20052;-73
2022/02/16 11:01:35;;;;;;;24.80;12.38;;;;;;;13.06;25.02;99425.56;5038888;28;20043;-74
2022/02/16 11:04:03;;;;;;;21.27;11.70;;;;;;;13.92;23.78;99414.34;5071746;28;20058;-73
2022/02/16 11:06:29;;;;;;;27.30;13.13;;;;;;;13.65;24.04;99394.50;5037587;28;20036;-73
2022/02/16 11:08:56;;;;;;;25.08;12.98;;;;;;;13.35;23.98;99324.28;5054707;28;20047;-73
2022/02/16 11:11:22;;;;;;;24.27;12.68;;;;;;;13.46;24.43;99392.34;5054860;28;20043;-72
2022/02/16 11:13:49;;;;;;;22.33;12.80;;;;;;;13.08;24.72;99374.72;5074392;28;20039;-72
2022/02/16 11:16:17;;;;;;;22.75;13.07;;;;;;;12.44;25.47;99393.84;5054303;28;20096;-72
2022/02/16 11:18:45;;;;;;;24.55;12.70;;;;;;;11.48;27.14;99392.34;5054666;28;20518;-73
2022/02/16 11:21:14;;;;;;;24.23;13.00;;;;;;;10.51;28.44;99369.47;5054343;28;20047;-71
2022/02/16 11:23:44;;;;;;;24.48;13.02;;;;;;;9.84;30.20;99376.53;5038102;28;20036;-73
2022/02/16 11:26:29;;;;;;;34.37;13.67;;;;;;;9.49;31.33;99352.00;5065601;28;20055;-71
2022/02/16 11:28:58;;;;;;;23.45;12.07;;;;;;;9.09;32.20;99370.31;5091217;28;20278;-72
2022/02/16 11:31:30;;;;;;;23.80;12.15;;;;;;;8.86;33.10;99399.13;5057890;28;20134;-71
2022/02/16 11:34:10;;;;;;;23.15;11.30;;;;;;;9.24;32.99;99343.09;5111226;28;20039;-75